Las Palmas, Spain
Current Conditions -  °F | °C
As of 10:30 PM on Monday 24 Nov 2014 (Local Time) from GCLP Reporting Station
Scattered Clouds Scattered Clouds  
Wind Chill: 68°   Ceiling: Unl
Heat Index: 68°   Visibility: 6mi
Dew Point: 54°   Wind: 13mph
Humidity: 60%   Direction: 350°N
Pressure: 30.21"   Gusts: NA
Location:  28.12°N, 15.43°W
Report Text: GCLP 242230Z 35011KT 310V010 9999 SCT040 20/12 Q1023 NOSIG
Loading
Personal Weather Stations






























Interactive Weather Map New forecast layout! Learn more

10-Day Weather Forecast

Advertisements
Track Severe Weather on mobile